sensor_id;sensor_type;location;lat;lon;timestamp;P1;durP1;ratioP1;P2;durP2;ratioP2
33836;SDS011;20140;49.356;8.812;2022-09-23T00:01:14;2.50;;;2.25;;
33836;SDS011;20140;49.356;8.812;2022-09-23T00:03:40;4.53;;;2.73;;
33836;SDS011;20140;49.356;8.812;2022-09-23T00:06:07;2.38;;;2.17;;
33836;SDS011;20140;49.356;8.812;2022-09-23T00:08:34;3.35;;;2.42;;
33836;SDS011;20140;49.356;8.812;2022-09-23T00:11:08;2.57;;;2.20;;
33836;SDS011;20140;49.356;8.812;2022-09-23T00:13:36;2.40;;;2.20;;
33836;SDS011;20140;49.356;8.812;2022-09-23T00:16:06;2.40;;;2.08;;
33836;SDS011;20140;49.356;8.812;2022-09-23T00:18:38;3.45;;;2.60;;
33836;SDS011;20140;49.356;8.812;2022-09-23T00:21:05;3.35;;;2.58;;
33836;SDS011;20140;49.356;8.812;2022-09-23T00:23:34;4.77;;;2.37;;
33836;SDS011;20140;49.356;8.812;2022-09-23T00:26:01;2.58;;;2.38;;
33836;SDS011;20140;49.356;8.812;2022-09-23T00:28:28;4.18;;;2.50;;
33836;SDS011;20140;49.356;8.812;2022-09-23T00:30:55;3.80;;;2.35;;
33836;SDS011;20140;49.356;8.812;2022-09-23T00:33:21;2.88;;;2.42;;
33836;SDS011;20140;49.356;8.812;2022-09-23T00:35:47;3.83;;;2.50;;
33836;SDS011;20140;49.356;8.812;2022-09-23T00:38:13;4.28;;;2.50;;
33836;SDS011;20140;49.356;8.812;2022-09-23T00:40:42;2.90;;;2.60;;
33836;SDS011;20140;49.356;8.812;2022-09-23T00:43:10;3.10;;;2.47;;
33836;SDS011;20140;49.356;8.812;2022-09-23T00:45:39;4.33;;;2.53;;
33836;SDS011;20140;49.356;8.812;2022-09-23T00:48:12;3.58;;;2.13;;
33836;SDS011;20140;49.356;8.812;2022-09-23T00:50:41;3.00;;;2.50;;
33836;SDS011;20140;49.356;8.812;2022-09-23T00:53:10;3.83;;;2.80;;
33836;SDS011;20140;49.356;8.812;2022-09-23T00:55:39;2.80;;;2.53;;
33836;SDS011;20140;49.356;8.812;2022-09-23T00:58:14;3.67;;;2.33;;
33836;SDS011;20140;49.356;8.812;2022-09-23T01:00:44;5.72;;;2.70;;
33836;SDS011;20140;49.356;8.812;2022-09-23T01:03:11;4.43;;;2.47;;
33836;SDS011;20140;49.356;8.812;2022-09-23T01:05:38;4.63;;;2.30;;
33836;SDS011;20140;49.356;8.812;2022-09-23T01:08:05;5.32;;;2.50;;
33836;SDS011;20140;49.356;8.812;2022-09-23T01:10:42;5.45;;;2.78;;
33836;SDS011;20140;49.356;8.812;2022-09-23T01:26:49;3.08;;;2.78;;
33836;SDS011;20140;49.356;8.812;2022-09-23T01:32:30;4.57;;;2.85;;
33836;SDS011;20140;49.356;8.812;2022-09-23T01:35:06;4.97;;;3.47;;
33836;SDS011;20140;49.356;8.812;2022-09-23T01:37:34;4.97;;;2.63;;
33836;SDS011;20140;49.356;8.812;2022-09-23T01:43:24;3.38;;;2.25;;
33836;SDS011;20140;49.356;8.812;2022-09-23T01:46:15;2.70;;;2.22;;
33836;SDS011;20140;49.356;8.812;2022-09-23T01:48:45;3.30;;;2.58;;
33836;SDS011;20140;49.356;8.812;2022-09-23T01:51:36;9.02;;;2.97;;
33836;SDS011;20140;49.356;8.812;2022-09-23T01:54:08;4.43;;;2.47;;
33836;SDS011;20140;49.356;8.812;2022-09-23T01:56:46;7.45;;;2.90;;
33836;SDS011;20140;49.356;8.812;2022-09-23T01:59:17;3.78;;;2.40;;
33836;SDS011;20140;49.356;8.812;2022-09-23T02:02:00;4.35;;;2.80;;
33836;SDS011;20140;49.356;8.812;2022-09-23T02:04:35;5.10;;;3.22;;
33836;SDS011;20140;49.356;8.812;2022-09-23T02:07:10;3.95;;;2.70;;
33836;SDS011;20140;49.356;8.812;2022-09-23T02:09:47;3.20;;;2.42;;
33836;SDS011;20140;49.356;8.812;2022-09-23T02:12:21;3.25;;;2.95;;
33836;SDS011;20140;49.356;8.812;2022-09-23T02:15:02;5.35;;;2.63;;
33836;SDS011;20140;49.356;8.812;2022-09-23T02:17:43;3.45;;;2.85;;
33836;SDS011;20140;49.356;8.812;2022-09-23T02:20:14;4.32;;;3.00;;
33836;SDS011;20140;49.356;8.812;2022-09-23T02:22:53;3.78;;;2.65;;
33836;SDS011;20140;49.356;8.812;2022-09-23T02:25:27;3.13;;;2.58;;
33836;SDS011;20140;49.356;8.812;2022-09-23T02:28:05;3.38;;;2.90;;
33836;SDS011;20140;49.356;8.812;2022-09-23T02:30:44;5.55;;;3.00;;
33836;SDS011;20140;49.356;8.812;2022-09-23T02:35:50;5.45;;;3.25;;
33836;SDS011;20140;49.356;8.812;2022-09-23T02:38:31;4.30;;;2.95;;
33836;SDS011;20140;49.356;8.812;2022-09-23T02:41:09;4.07;;;2.55;;
33836;SDS011;20140;49.356;8.812;2022-09-23T02:43:45;3.17;;;2.78;;
33836;SDS011;20140;49.356;8.812;2022-09-23T02:46:17;2.90;;;2.20;;
33836;SDS011;20140;49.356;8.812;2022-09-23T02:48:45;6.32;;;3.13;;
33836;SDS011;20140;49.356;8.812;2022-09-23T02:51:21;4.90;;;2.60;;
33836;SDS011;20140;49.356;8.812;2022-09-23T02:53:49;3.10;;;2.80;;
33836;SDS011;20140;49.356;8.812;2022-09-23T02:56:17;2.90;;;2.60;;
33836;SDS011;20140;49.356;8.812;2022-09-23T02:58:44;2.87;;;2.43;;
33836;SDS011;20140;49.356;8.812;2022-09-23T03:04:06;3.65;;;2.95;;
33836;SDS011;20140;49.356;8.812;2022-09-23T03:11:57;3.03;;;2.65;;
33836;SDS011;20140;49.356;8.812;2022-09-23T03:17:17;4.43;;;3.80;;
33836;SDS011;20140;49.356;8.812;2022-09-23T03:19:55;3.10;;;2.80;;
33836;SDS011;20140;49.356;8.812;2022-09-23T03:22:28;3.70;;;3.17;;
33836;SDS011;20140;49.356;8.812;2022-09-23T03:25:12;3.10;;;2.60;;
33836;SDS011;20140;49.356;8.812;2022-09-23T03:27:41;4.30;;;2.97;;
33836;SDS011;20140;49.356;8.812;2022-09-23T03:30:09;3.60;;;3.30;;
33836;SDS011;20140;49.356;8.812;2022-09-23T03:32:35;4.47;;;3.05;;
33836;SDS011;20140;49.356;8.812;2022-09-23T03:35:03;2.95;;;2.65;;
33836;SDS011;20140;49.356;8.812;2022-09-23T03:37:34;2.95;;;2.65;;
33836;SDS011;20140;49.356;8.812;2022-09-23T03:40:10;5.07;;;2.65;;
33836;SDS011;20140;49.356;8.812;2022-09-23T03:42:45;3.50;;;2.78;;
33836;SDS011;20140;49.356;8.812;2022-09-23T03:45:15;3.28;;;2.97;;
33836;SDS011;20140;49.356;8.812;2022-09-23T03:47:45;4.97;;;3.15;;
33836;SDS011;20140;49.356;8.812;2022-09-23T03:50:11;9.93;;;3.60;;
33836;SDS011;20140;49.356;8.812;2022-09-23T03:52:37;3.42;;;3.08;;
33836;SDS011;20140;49.356;8.812;2022-09-23T03:55:04;5.00;;;2.60;;
33836;SDS011;20140;49.356;8.812;2022-09-23T03:57:33;3.70;;;3.00;;
33836;SDS011;20140;49.356;8.812;2022-09-23T03:59:59;4.43;;;3.10;;
33836;SDS011;20140;49.356;8.812;2022-09-23T04:02:24;4.70;;;3.33;;
33836;SDS011;20140;49.356;8.812;2022-09-23T04:04:50;6.40;;;3.38;;
33836;SDS011;20140;49.356;8.812;2022-09-23T04:07:16;3.22;;;2.92;;
33836;SDS011;20140;49.356;8.812;2022-09-23T04:09:42;4.85;;;3.13;;
33836;SDS011;20140;49.356;8.812;2022-09-23T04:12:10;3.28;;;2.38;;
33836;SDS011;20140;49.356;8.812;2022-09-23T04:14:38;2.97;;;2.78;;
33836;SDS011;20140;49.356;8.812;2022-09-23T04:17:04;2.67;;;2.47;;
33836;SDS011;20140;49.356;8.812;2022-09-23T04:19:30;3.13;;;2.83;;
33836;SDS011;20140;49.356;8.812;2022-09-23T04:21:55;3.17;;;2.67;;
33836;SDS011;20140;49.356;8.812;2022-09-23T04:24:21;3.10;;;2.80;;
33836;SDS011;20140;49.356;8.812;2022-09-23T04:26:48;4.27;;;2.63;;
33836;SDS011;20140;49.356;8.812;2022-09-23T04:29:16;3.00;;;2.80;;
33836;SDS011;20140;49.356;8.812;2022-09-23T04:31:41;2.67;;;2.47;;
33836;SDS011;20140;49.356;8.812;2022-09-23T04:34:07;3.40;;;3.03;;
33836;SDS011;20140;49.356;8.812;2022-09-23T04:36:33;5.47;;;2.80;;
33836;SDS011;20140;49.356;8.812;2022-09-23T04:38:59;4.00;;;3.07;;
33836;SDS011;20140;49.356;8.812;2022-09-23T04:41:25;3.97;;;3.30;;
33836;SDS011;20140;49.356;8.812;2022-09-23T04:43:51;3.77;;;3.47;;
33836;SDS011;20140;49.356;8.812;2022-09-23T04:46:16;3.60;;;3.05;;
33836;SDS011;20140;49.356;8.812;2022-09-23T04:48:42;7.53;;;2.70;;
33836;SDS011;20140;49.356;8.812;2022-09-23T04:51:09;4.30;;;3.13;;
33836;SDS011;20140;49.356;8.812;2022-09-23T04:53:37;2.90;;;2.60;;
33836;SDS011;20140;49.356;8.812;2022-09-23T04:56:06;3.05;;;2.75;;
33836;SDS011;20140;49.356;8.812;2022-09-23T04:58:37;5.88;;;3.20;;
33836;SDS011;20140;49.356;8.812;2022-09-23T05:01:13;2.70;;;2.50;;
33836;SDS011;20140;49.356;8.812;2022-09-23T05:03:39;3.75;;;2.97;;
33836;SDS011;20140;49.356;8.812;2022-09-23T05:06:06;3.30;;;3.00;;
33836;SDS011;20140;49.356;8.812;2022-09-23T05:08:32;3.28;;;2.95;;
33836;SDS011;20140;49.356;8.812;2022-09-23T05:10:58;4.55;;;2.40;;
33836;SDS011;20140;49.356;8.812;2022-09-23T05:13:25;3.65;;;2.70;;
33836;SDS011;20140;49.356;8.812;2022-09-23T05:16:01;2.90;;;2.60;;
33836;SDS011;20140;49.356;8.812;2022-09-23T05:18:31;3.50;;;3.20;;
33836;SDS011;20140;49.356;8.812;2022-09-23T05:20:58;3.00;;;2.58;;
33836;SDS011;20140;49.356;8.812;2022-09-23T05:23:24;4.10;;;2.85;;
33836;SDS011;20140;49.356;8.812;2022-09-23T05:25:55;3.30;;;3.00;;
33836;SDS011;20140;49.356;8.812;2022-09-23T05:28:22;3.08;;;2.72;;
33836;SDS011;20140;49.356;8.812;2022-09-23T05:30:49;3.37;;;2.70;;
33836;SDS011;20140;49.356;8.812;2022-09-23T05:33:14;2.50;;;2.30;;
33836;SDS011;20140;49.356;8.812;2022-09-23T05:35:45;4.00;;;3.10;;
33836;SDS011;20140;49.356;8.812;2022-09-23T05:38:11;3.03;;;2.72;;
33836;SDS011;20140;49.356;8.812;2022-09-23T05:40:36;3.47;;;3.17;;
33836;SDS011;20140;49.356;8.812;2022-09-23T05:43:02;3.87;;;2.73;;
33836;SDS011;20140;49.356;8.812;2022-09-23T05:45:27;6.43;;;3.10;;
33836;SDS011;20140;49.356;8.812;2022-09-23T05:47:53;5.03;;;2.92;;
33836;SDS011;20140;49.356;8.812;2022-09-23T05:50:19;4.82;;;3.03;;
33836;SDS011;20140;49.356;8.812;2022-09-23T05:52:44;4.07;;;3.30;;
33836;SDS011;20140;49.356;8.812;2022-09-23T05:55:10;4.40;;;3.37;;
33836;SDS011;20140;49.356;8.812;2022-09-23T05:57:35;2.80;;;2.60;;
33836;SDS011;20140;49.356;8.812;2022-09-23T06:00:01;3.10;;;2.80;;
33836;SDS011;20140;49.356;8.812;2022-09-23T06:02:27;2.72;;;2.53;;
33836;SDS011;20140;49.356;8.812;2022-09-23T06:04:52;3.03;;;2.72;;
33836;SDS011;20140;49.356;8.812;2022-09-23T06:07:18;4.40;;;3.30;;
33836;SDS011;20140;49.356;8.812;2022-09-23T06:09:43;3.27;;;2.97;;
33836;SDS011;20140;49.356;8.812;2022-09-23T06:12:09;3.43;;;3.07;;
33836;SDS011;20140;49.356;8.812;2022-09-23T06:14:35;4.00;;;2.93;;
33836;SDS011;20140;49.356;8.812;2022-09-23T06:17:01;3.20;;;2.90;;
33836;SDS011;20140;49.356;8.812;2022-09-23T06:19:26;3.83;;;3.43;;
33836;SDS011;20140;49.356;8.812;2022-09-23T06:21:52;3.83;;;2.93;;
33836;SDS011;20140;49.356;8.812;2022-09-23T06:24:17;4.73;;;2.90;;
33836;SDS011;20140;49.356;8.812;2022-09-23T06:26:42;3.42;;;2.70;;
33836;SDS011;20140;49.356;8.812;2022-09-23T06:29:09;4.15;;;2.78;;
33836;SDS011;20140;49.356;8.812;2022-09-23T06:31:35;3.55;;;3.00;;
33836;SDS011;20140;49.356;8.812;2022-09-23T06:34:02;3.90;;;3.50;;
33836;SDS011;20140;49.356;8.812;2022-09-23T06:36:28;3.50;;;2.92;;
33836;SDS011;20140;49.356;8.812;2022-09-23T06:38:54;4.00;;;3.60;;
33836;SDS011;20140;49.356;8.812;2022-09-23T06:41:20;4.10;;;2.72;;
33836;SDS011;20140;49.356;8.812;2022-09-23T06:43:45;3.25;;;2.88;;
33836;SDS011;20140;49.356;8.812;2022-09-23T06:46:12;4.07;;;3.25;;
33836;SDS011;20140;49.356;8.812;2022-09-23T06:48:40;4.45;;;2.72;;
33836;SDS011;20140;49.356;8.812;2022-09-23T06:51:08;3.37;;;2.80;;
33836;SDS011;20140;49.356;8.812;2022-09-23T06:53:37;3.90;;;3.27;;
33836;SDS011;20140;49.356;8.812;2022-09-23T06:56:04;4.05;;;3.10;;
33836;SDS011;20140;49.356;8.812;2022-09-23T06:58:32;8.05;;;3.97;;
33836;SDS011;20140;49.356;8.812;2022-09-23T07:01:00;3.88;;;3.58;;
33836;SDS011;20140;49.356;8.812;2022-09-23T07:03:26;4.00;;;3.60;;
33836;SDS011;20140;49.356;8.812;2022-09-23T07:05:55;3.20;;;2.90;;
33836;SDS011;20140;49.356;8.812;2022-09-23T07:08:21;5.22;;;3.20;;
33836;SDS011;20140;49.356;8.812;2022-09-23T07:10:51;3.83;;;3.25;;
33836;SDS011;20140;49.356;8.812;2022-09-23T07:13:17;3.78;;;3.47;;
33836;SDS011;20140;49.356;8.812;2022-09-23T07:15:47;5.27;;;3.13;;
33836;SDS011;20140;49.356;8.812;2022-09-23T07:18:14;4.18;;;3.10;;
33836;SDS011;20140;49.356;8.812;2022-09-23T07:20:40;5.00;;;3.20;;
33836;SDS011;20140;49.356;8.812;2022-09-23T07:23:05;3.30;;;3.00;;
33836;SDS011;20140;49.356;8.812;2022-09-23T07:25:31;4.13;;;3.17;;
33836;SDS011;20140;49.356;8.812;2022-09-23T07:27:58;5.03;;;4.00;;
33836;SDS011;20140;49.356;8.812;2022-09-23T07:30:24;4.22;;;3.78;;
33836;SDS011;20140;49.356;8.812;2022-09-23T07:32:50;5.53;;;4.47;;
33836;SDS011;20140;49.356;8.812;2022-09-23T07:35:17;6.50;;;4.00;;
33836;SDS011;20140;49.356;8.812;2022-09-23T07:37:42;4.63;;;4.00;;
33836;SDS011;20140;49.356;8.812;2022-09-23T07:40:08;6.30;;;4.22;;
33836;SDS011;20140;49.356;8.812;2022-09-23T07:42:34;5.05;;;3.92;;
33836;SDS011;20140;49.356;8.812;2022-09-23T07:45:00;6.00;;;4.88;;
33836;SDS011;20140;49.356;8.812;2022-09-23T07:47:26;6.07;;;5.00;;
33836;SDS011;20140;49.356;8.812;2022-09-23T07:49:51;5.20;;;4.70;;
33836;SDS011;20140;49.356;8.812;2022-09-23T07:52:18;5.93;;;5.10;;
33836;SDS011;20140;49.356;8.812;2022-09-23T07:54:45;6.45;;;4.47;;
33836;SDS011;20140;49.356;8.812;2022-09-23T07:57:11;5.70;;;5.05;;
33836;SDS011;20140;49.356;8.812;2022-09-23T07:59:37;5.50;;;4.73;;
33836;SDS011;20140;49.356;8.812;2022-09-23T08:02:03;5.00;;;4.38;;
33836;SDS011;20140;49.356;8.812;2022-09-23T08:04:29;5.37;;;4.80;;
33836;SDS011;20140;49.356;8.812;2022-09-23T08:06:57;7.85;;;4.60;;
33836;SDS011;20140;49.356;8.812;2022-09-23T08:09:25;5.00;;;4.37;;
33836;SDS011;20140;49.356;8.812;2022-09-23T08:11:53;5.22;;;4.07;;
33836;SDS011;20140;49.356;8.812;2022-09-23T08:14:19;5.60;;;4.37;;
33836;SDS011;20140;49.356;8.812;2022-09-23T08:16:46;5.30;;;3.92;;
33836;SDS011;20140;49.356;8.812;2022-09-23T08:19:12;5.25;;;4.60;;
33836;SDS011;20140;49.356;8.812;2022-09-23T08:21:38;5.97;;;4.70;;
33836;SDS011;20140;49.356;8.812;2022-09-23T08:24:06;5.10;;;4.55;;
33836;SDS011;20140;49.356;8.812;2022-09-23T08:26:32;4.60;;;4.15;;
33836;SDS011;20140;49.356;8.812;2022-09-23T08:28:58;5.13;;;4.18;;
33836;SDS011;20140;49.356;8.812;2022-09-23T08:31:24;4.53;;;3.72;;
33836;SDS011;20140;49.356;8.812;2022-09-23T08:33:53;4.53;;;4.13;;
33836;SDS011;20140;49.356;8.812;2022-09-23T08:36:46;4.43;;;3.90;;
33836;SDS011;20140;49.356;8.812;2022-09-23T08:39:12;4.40;;;4.00;;
33836;SDS011;20140;49.356;8.812;2022-09-23T08:41:42;4.95;;;4.22;;
33836;SDS011;20140;49.356;8.812;2022-09-23T08:44:16;4.75;;;4.30;;
33836;SDS011;20140;49.356;8.812;2022-09-23T08:46:46;4.88;;;4.28;;
33836;SDS011;20140;49.356;8.812;2022-09-23T08:49:21;4.88;;;3.63;;
33836;SDS011;20140;49.356;8.812;2022-09-23T08:51:49;4.20;;;3.25;;
33836;SDS011;20140;49.356;8.812;2022-09-23T08:54:18;4.53;;;4.10;;
33836;SDS011;20140;49.356;8.812;2022-09-23T08:56:46;4.13;;;3.72;;
33836;SDS011;20140;49.356;8.812;2022-09-23T09:01:54;4.82;;;3.58;;
33836;SDS011;20140;49.356;8.812;2022-09-23T09:04:31;3.28;;;2.97;;
33836;SDS011;20140;49.356;8.812;2022-09-23T09:09:38;4.85;;;3.92;;
33836;SDS011;20140;49.356;8.812;2022-09-23T09:15:23;4.65;;;3.55;;
33836;SDS011;20140;49.356;8.812;2022-09-23T09:18:00;5.28;;;3.45;;
33836;SDS011;20140;49.356;8.812;2022-09-23T09:23:22;4.22;;;3.83;;
33836;SDS011;20140;49.356;8.812;2022-09-23T09:26:10;4.97;;;3.85;;
33836;SDS011;20140;49.356;8.812;2022-09-23T09:28:53;4.38;;;3.80;;
33836;SDS011;20140;49.356;8.812;2022-09-23T09:39:49;4.78;;;4.10;;
33836;SDS011;20140;49.356;8.812;2022-09-23T09:42:18;5.40;;;3.67;;
33836;SDS011;20140;49.356;8.812;2022-09-23T09:44:52;4.55;;;4.15;;
33836;SDS011;20140;49.356;8.812;2022-09-23T09:52:34;4.75;;;4.15;;
33836;SDS011;20140;49.356;8.812;2022-09-23T09:57:42;5.30;;;4.50;;
33836;SDS011;20140;49.356;8.812;2022-09-23T10:03:31;5.38;;;4.90;;
33836;SDS011;20140;49.356;8.812;2022-09-23T10:08:29;5.60;;;4.82;;
33836;SDS011;20140;49.356;8.812;2022-09-23T10:13:22;5.30;;;4.53;;
33836;SDS011;20140;49.356;8.812;2022-09-23T10:15:48;6.32;;;4.72;;
33836;SDS011;20140;49.356;8.812;2022-09-23T10:19:09;5.38;;;4.57;;
33836;SDS011;20140;49.356;8.812;2022-09-23T10:21:10;4.10;;;3.70;;
33836;SDS011;20140;49.356;8.812;2022-09-23T10:24:03;5.10;;;3.73;;
33836;SDS011;20140;49.356;8.812;2022-09-23T10:26:31;5.47;;;4.03;;
33836;SDS011;20140;49.356;8.812;2022-09-23T10:29:02;5.57;;;4.25;;
33836;SDS011;20140;49.356;8.812;2022-09-23T10:31:44;6.10;;;4.30;;
33836;SDS011;20140;49.356;8.812;2022-09-23T10:34:23;4.97;;;4.10;;
33836;SDS011;20140;49.356;8.812;2022-09-23T10:36:54;3.67;;;3.30;;
33836;SDS011;20140;49.356;8.812;2022-09-23T10:39:27;4.07;;;3.67;;
33836;SDS011;20140;49.356;8.812;2022-09-23T10:42:20;4.00;;;3.60;;
33836;SDS011;20140;49.356;8.812;2022-09-23T10:45:25;4.63;;;3.40;;
33836;SDS011;20140;49.356;8.812;2022-09-23T10:48:19;5.50;;;4.07;;
33836;SDS011;20140;49.356;8.812;2022-09-23T10:51:00;4.53;;;3.37;;
33836;SDS011;20140;49.356;8.812;2022-09-23T10:56:45;5.73;;;3.80;;
33836;SDS011;20140;49.356;8.812;2022-09-23T10:59:29;4.05;;;3.65;;
33836;SDS011;20140;49.356;8.812;2022-09-23T11:02:33;5.30;;;3.83;;
33836;SDS011;20140;49.356;8.812;2022-09-23T11:08:02;3.90;;;3.53;;
33836;SDS011;20140;49.356;8.812;2022-09-23T11:13:45;5.65;;;3.65;;
33836;SDS011;20140;49.356;8.812;2022-09-23T11:16:25;4.35;;;3.50;;
33836;SDS011;20140;49.356;8.812;2022-09-23T11:30:29;8.82;;;3.75;;
33836;SDS011;20140;49.356;8.812;2022-09-23T11:33:18;4.78;;;3.67;;
33836;SDS011;20140;49.356;8.812;2022-09-23T11:36:03;8.88;;;3.33;;
33836;SDS011;20140;49.356;8.812;2022-09-23T11:38:36;8.05;;;4.20;;
33836;SDS011;20140;49.356;8.812;2022-09-23T11:43:50;4.75;;;4.35;;
33836;SDS011;20140;49.356;8.812;2022-09-23T11:46:26;10.43;;;4.03;;
33836;SDS011;20140;49.356;8.812;2022-09-23T11:52:13;5.47;;;4.10;;
33836;SDS011;20140;49.356;8.812;2022-09-23T11:55:00;5.72;;;3.97;;
33836;SDS011;20140;49.356;8.812;2022-09-23T11:57:38;5.18;;;3.50;;
33836;SDS011;20140;49.356;8.812;2022-09-23T12:00:15;3.40;;;3.10;;
33836;SDS011;20140;49.356;8.812;2022-09-23T12:05:46;2.92;;;2.63;;
33836;SDS011;20140;49.356;8.812;2022-09-23T12:27:50;4.15;;;2.80;;
33836;SDS011;20140;49.356;8.812;2022-09-23T12:30:22;4.10;;;2.25;;
33836;SDS011;20140;49.356;8.812;2022-09-23T12:32:51;3.08;;;2.22;;
33836;SDS011;20140;49.356;8.812;2022-09-23T12:35:21;3.47;;;3.08;;
33836;SDS011;20140;49.356;8.812;2022-09-23T12:37:49;4.97;;;2.30;;
33836;SDS011;20140;49.356;8.812;2022-09-23T12:42:45;4.10;;;2.53;;
33836;SDS011;20140;49.356;8.812;2022-09-23T12:45:16;3.40;;;2.38;;
33836;SDS011;20140;49.356;8.812;2022-09-23T12:47:57;2.95;;;2.20;;
33836;SDS011;20140;49.356;8.812;2022-09-23T12:56:00;3.47;;;2.20;;
33836;SDS011;20140;49.356;8.812;2022-09-23T13:01:17;3.10;;;2.20;;
33836;SDS011;20140;49.356;8.812;2022-09-23T13:03:53;3.63;;;2.45;;
33836;SDS011;20140;49.356;8.812;2022-09-23T13:06:50;3.40;;;2.17;;
33836;SDS011;20140;49.356;8.812;2022-09-23T13:09:22;4.68;;;2.10;;
33836;SDS011;20140;49.356;8.812;2022-09-23T13:11:52;4.72;;;2.28;;
33836;SDS011;20140;49.356;8.812;2022-09-23T13:14:25;4.68;;;2.42;;
33836;SDS011;20140;49.356;8.812;2022-09-23T13:16:53;3.97;;;2.25;;
33836;SDS011;20140;49.356;8.812;2022-09-23T13:21:57;3.22;;;2.65;;
33836;SDS011;20140;49.356;8.812;2022-09-23T13:26:51;2.25;;;2.05;;
33836;SDS011;20140;49.356;8.812;2022-09-23T13:29:20;3.38;;;2.05;;
33836;SDS011;20140;49.356;8.812;2022-09-23T13:31:50;4.07;;;2.53;;
33836;SDS011;20140;49.356;8.812;2022-09-23T13:34:18;3.58;;;1.95;;
33836;SDS011;20140;49.356;8.812;2022-09-23T13:36:46;2.42;;;2.08;;
33836;SDS011;20140;49.356;8.812;2022-09-23T13:39:21;3.80;;;2.60;;
33836;SDS011;20140;49.356;8.812;2022-09-23T13:41:48;3.40;;;2.30;;
33836;SDS011;20140;49.356;8.812;2022-09-23T13:44:17;5.90;;;2.88;;
33836;SDS011;20140;49.356;8.812;2022-09-23T13:46:52;3.33;;;2.58;;
33836;SDS011;20140;49.356;8.812;2022-09-23T13:49:21;2.63;;;2.00;;
33836;SDS011;20140;49.356;8.812;2022-09-23T13:51:56;2.83;;;2.35;;
33836;SDS011;20140;49.356;8.812;2022-09-23T13:54:25;3.20;;;2.10;;
33836;SDS011;20140;49.356;8.812;2022-09-23T13:56:53;4.07;;;1.98;;
33836;SDS011;20140;49.356;8.812;2022-09-23T14:02:05;2.38;;;1.88;;
33836;SDS011;20140;49.356;8.812;2022-09-23T14:04:34;3.00;;;2.53;;
33836;SDS011;20140;49.356;8.812;2022-09-23T14:07:00;4.93;;;2.53;;
33836;SDS011;20140;49.356;8.812;2022-09-23T14:09:26;3.92;;;2.10;;
33836;SDS011;20140;49.356;8.812;2022-09-23T14:11:54;2.17;;;1.98;;
33836;SDS011;20140;49.356;8.812;2022-09-23T14:14:22;2.88;;;2.17;;
33836;SDS011;20140;49.356;8.812;2022-09-23T14:16:48;2.50;;;2.00;;
33836;SDS011;20140;49.356;8.812;2022-09-23T14:19:16;4.05;;;1.88;;
33836;SDS011;20140;49.356;8.812;2022-09-23T14:21:45;2.33;;;1.77;;
33836;SDS011;20140;49.356;8.812;2022-09-23T14:26:42;6.18;;;2.03;;
33836;SDS011;20140;49.356;8.812;2022-09-23T14:29:30;6.10;;;2.38;;
33836;SDS011;20140;49.356;8.812;2022-09-23T14:32:11;2.43;;;2.23;;
33836;SDS011;20140;49.356;8.812;2022-09-23T14:34:52;4.90;;;2.40;;
33836;SDS011;20140;49.356;8.812;2022-09-23T14:37:32;4.57;;;2.00;;
33836;SDS011;20140;49.356;8.812;2022-09-23T14:40:26;2.72;;;2.35;;
33836;SDS011;20140;49.356;8.812;2022-09-23T14:45:26;5.13;;;2.72;;
33836;SDS011;20140;49.356;8.812;2022-09-23T14:47:56;4.13;;;2.40;;
33836;SDS011;20140;49.356;8.812;2022-09-23T14:50:25;5.13;;;2.25;;
33836;SDS011;20140;49.356;8.812;2022-09-23T14:55:47;4.10;;;2.38;;
33836;SDS011;20140;49.356;8.812;2022-09-23T14:58:15;2.95;;;2.15;;
33836;SDS011;20140;49.356;8.812;2022-09-23T15:00:58;3.42;;;2.45;;
33836;SDS011;20140;49.356;8.812;2022-09-23T15:03:25;5.45;;;2.70;;
33836;SDS011;20140;49.356;8.812;2022-09-23T15:05:56;4.80;;;2.10;;
33836;SDS011;20140;49.356;8.812;2022-09-23T15:08:28;4.30;;;1.70;;
33836;SDS011;20140;49.356;8.812;2022-09-23T15:10:57;6.03;;;2.03;;
33836;SDS011;20140;49.356;8.812;2022-09-23T15:13:26;3.33;;;1.88;;
33836;SDS011;20140;49.356;8.812;2022-09-23T15:15:53;2.95;;;2.08;;
33836;SDS011;20140;49.356;8.812;2022-09-23T15:21:13;2.50;;;1.90;;
33836;SDS011;20140;49.356;8.812;2022-09-23T15:26:08;1.90;;;1.70;;
33836;SDS011;20140;49.356;8.812;2022-09-23T15:28:34;2.83;;;2.15;;
33836;SDS011;20140;49.356;8.812;2022-09-23T15:30:59;4.60;;;2.20;;
33836;SDS011;20140;49.356;8.812;2022-09-23T15:33:25;3.00;;;2.47;;
33836;SDS011;20140;49.356;8.812;2022-09-23T15:35:52;2.35;;;1.92;;
33836;SDS011;20140;49.356;8.812;2022-09-23T15:38:18;2.80;;;1.95;;
33836;SDS011;20140;49.356;8.812;2022-09-23T15:40:45;2.22;;;1.83;;
33836;SDS011;20140;49.356;8.812;2022-09-23T15:43:15;2.28;;;1.90;;
33836;SDS011;20140;49.356;8.812;2022-09-23T15:45:49;4.47;;;2.53;;
33836;SDS011;20140;49.356;8.812;2022-09-23T15:48:24;3.53;;;2.10;;
33836;SDS011;20140;49.356;8.812;2022-09-23T15:50:52;3.50;;;2.05;;
33836;SDS011;20140;49.356;8.812;2022-09-23T15:53:23;2.35;;;2.10;;
33836;SDS011;20140;49.356;8.812;2022-09-23T15:55:50;2.58;;;1.88;;
33836;SDS011;20140;49.356;8.812;2022-09-23T15:58:16;2.55;;;2.15;;
33836;SDS011;20140;49.356;8.812;2022-09-23T16:00:48;3.22;;;1.85;;
33836;SDS011;20140;49.356;8.812;2022-09-23T16:03:16;3.30;;;2.20;;
33836;SDS011;20140;49.356;8.812;2022-09-23T16:05:43;3.53;;;2.42;;
33836;SDS011;20140;49.356;8.812;2022-09-23T16:08:11;3.13;;;2.00;;
33836;SDS011;20140;49.356;8.812;2022-09-23T16:10:38;8.85;;;2.88;;
33836;SDS011;20140;49.356;8.812;2022-09-23T16:13:11;2.97;;;1.70;;
33836;SDS011;20140;49.356;8.812;2022-09-23T16:15:38;2.88;;;2.58;;
33836;SDS011;20140;49.356;8.812;2022-09-23T16:18:05;2.73;;;2.10;;
33836;SDS011;20140;49.356;8.812;2022-09-23T16:20:32;3.35;;;2.65;;
33836;SDS011;20140;49.356;8.812;2022-09-23T16:23:03;4.63;;;2.70;;
33836;SDS011;20140;49.356;8.812;2022-09-23T16:25:31;3.03;;;2.33;;
33836;SDS011;20140;49.356;8.812;2022-09-23T16:28:00;3.25;;;2.55;;
33836;SDS011;20140;49.356;8.812;2022-09-23T16:30:28;4.30;;;2.67;;
33836;SDS011;20140;49.356;8.812;2022-09-23T16:32:54;3.17;;;2.47;;
33836;SDS011;20140;49.356;8.812;2022-09-23T16:35:20;2.20;;;1.98;;
33836;SDS011;20140;49.356;8.812;2022-09-23T16:37:48;4.30;;;2.72;;
33836;SDS011;20140;49.356;8.812;2022-09-23T16:40:15;5.20;;;2.50;;
33836;SDS011;20140;49.356;8.812;2022-09-23T16:42:44;2.88;;;2.08;;
33836;SDS011;20140;49.356;8.812;2022-09-23T16:45:11;6.07;;;2.40;;
33836;SDS011;20140;49.356;8.812;2022-09-23T16:47:44;3.57;;;2.13;;
33836;SDS011;20140;49.356;8.812;2022-09-23T16:50:15;2.85;;;2.30;;
33836;SDS011;20140;49.356;8.812;2022-09-23T16:52:42;4.75;;;2.42;;
33836;SDS011;20140;49.356;8.812;2022-09-23T16:55:10;3.00;;;2.10;;
33836;SDS011;20140;49.356;8.812;2022-09-23T16:57:37;4.00;;;2.33;;
33836;SDS011;20140;49.356;8.812;2022-09-23T17:00:04;6.25;;;2.42;;
33836;SDS011;20140;49.356;8.812;2022-09-23T17:02:50;3.55;;;2.40;;
33836;SDS011;20140;49.356;8.812;2022-09-23T17:05:34;3.38;;;2.30;;
33836;SDS011;20140;49.356;8.812;2022-09-23T17:08:00;3.72;;;3.35;;
33836;SDS011;20140;49.356;8.812;2022-09-23T17:10:26;7.47;;;3.90;;
33836;SDS011;20140;49.356;8.812;2022-09-23T17:12:51;5.47;;;2.70;;
33836;SDS011;20140;49.356;8.812;2022-09-23T17:15:19;4.93;;;3.95;;
33836;SDS011;20140;49.356;8.812;2022-09-23T17:17:45;3.95;;;2.97;;
33836;SDS011;20140;49.356;8.812;2022-09-23T17:20:10;6.18;;;3.03;;
33836;SDS011;20140;49.356;8.812;2022-09-23T17:22:38;4.15;;;2.60;;
33836;SDS011;20140;49.356;8.812;2022-09-23T17:25:05;5.18;;;2.92;;
33836;SDS011;20140;49.356;8.812;2022-09-23T17:27:31;3.85;;;2.55;;
33836;SDS011;20140;49.356;8.812;2022-09-23T17:29:57;2.73;;;2.30;;
33836;SDS011;20140;49.356;8.812;2022-09-23T17:32:23;4.70;;;2.80;;
33836;SDS011;20140;49.356;8.812;2022-09-23T17:34:49;7.38;;;2.78;;
33836;SDS011;20140;49.356;8.812;2022-09-23T17:37:14;3.57;;;2.80;;